createdAt,value
2019-02-04T00:01:01.101Z,-9.70
2019-02-04T00:03:32.079Z,-9.80
2019-02-04T00:06:04.116Z,-10.00
2019-02-04T00:08:37.164Z,-10.10
2019-02-04T00:11:10.121Z,-10.20
2019-02-04T00:13:41.129Z,-10.10
2019-02-04T00:16:12.505Z,-9.80
2019-02-04T00:18:43.597Z,-10.00
2019-02-04T00:21:15.570Z,-10.20
2019-02-04T00:23:47.990Z,-10.20
2019-02-04T00:26:18.673Z,-10.00
2019-02-04T00:28:48.728Z,-10.00
2019-02-04T00:31:19.579Z,-9.80
2019-02-04T00:33:54.861Z,-9.80
2019-02-04T00:36:44.813Z,-9.80
2019-02-04T00:39:17.032Z,-9.70
2019-02-04T00:41:47.568Z,-9.70
2019-02-04T00:44:22.994Z,-9.60
2019-02-04T00:46:55.113Z,-9.80
2019-02-04T00:49:30.585Z,-9.60
2019-02-04T00:52:02.686Z,-9.60
2019-02-04T00:54:36.169Z,-9.80
2019-02-04T00:57:09.602Z,-9.80
2019-02-04T00:59:40.481Z,-9.80
2019-02-04T01:02:11.748Z,-9.70
2019-02-04T01:04:44.088Z,-9.90
2019-02-04T01:07:13.852Z,-9.90
2019-02-04T01:09:42.593Z,-9.90
2019-02-04T01:12:12.664Z,-10.10
2019-02-04T01:14:44.904Z,-10.00
2019-02-04T01:17:17.709Z,-10.00
2019-02-04T01:19:47.141Z,-9.80
2019-02-04T01:22:18.968Z,-9.80
2019-02-04T01:24:52.126Z,-10.20
2019-02-04T01:27:25.105Z,-10.00
2019-02-04T01:29:57.102Z,-9.90
2019-02-04T01:32:29.593Z,-10.20
2019-02-04T01:35:01.697Z,-10.50
2019-02-04T01:37:32.636Z,-10.30
2019-02-04T01:40:02.151Z,-10.30
2019-02-04T01:42:35.697Z,-10.30
2019-02-04T01:45:11.112Z,-10.50
2019-02-04T01:47:44.521Z,-10.40
2019-02-04T01:50:17.435Z,-10.30
2019-02-04T01:52:58.385Z,-10.30
2019-02-04T01:55:30.736Z,-10.40
2019-02-04T01:58:00.872Z,-10.30
2019-02-04T02:00:33.169Z,-10.40
2019-02-04T02:03:06.511Z,-10.40
2019-02-04T02:05:42.700Z,-10.30
2019-02-04T02:08:14.715Z,-10.30
2019-02-04T02:10:49.176Z,-10.30
2019-02-04T02:13:19.576Z,-10.20
2019-02-04T02:15:51.054Z,-10.50
2019-02-04T02:18:23.164Z,-10.30
2019-02-04T02:20:54.381Z,-10.40
2019-02-04T02:23:25.136Z,-10.60
2019-02-04T02:25:59.062Z,-10.50
2019-02-04T02:28:30.801Z,-10.60
2019-02-04T02:31:02.392Z,-10.40
2019-02-04T02:33:33.797Z,-10.60
2019-02-04T02:36:04.828Z,-10.50
2019-02-04T02:38:37.975Z,-10.50
2019-02-04T02:41:10.378Z,-10.50
2019-02-04T02:43:41.729Z,-10.50
2019-02-04T02:46:14.313Z,-10.60
2019-02-04T02:48:47.748Z,-10.60
2019-02-04T02:51:17.236Z,-10.50
2019-02-04T02:53:48.096Z,-10.70
2019-02-04T02:56:20.601Z,-10.70
2019-02-04T02:58:53.053Z,-10.50
2019-02-04T03:01:25.777Z,-10.70
2019-02-04T03:03:58.258Z,-10.50
2019-02-04T03:06:30.085Z,-10.50
2019-02-04T03:09:02.688Z,-10.70
2019-02-04T03:11:34.644Z,-10.60
2019-02-04T03:14:07.085Z,-10.60
2019-02-04T03:16:38.483Z,-10.60
2019-02-04T03:19:10.903Z,-10.60
2019-02-04T03:21:42.291Z,-10.60
2019-02-04T03:24:15.206Z,-10.70
2019-02-04T03:26:47.574Z,-10.90
2019-02-04T03:29:18.871Z,-10.90
2019-02-04T03:31:50.901Z,-10.90
2019-02-04T03:34:27.826Z,-11.00
2019-02-04T03:36:59.246Z,-10.90
2019-02-04T03:39:31.784Z,-10.90
2019-02-04T03:42:03.260Z,-11.00
2019-02-04T03:44:34.215Z,-11.10
2019-02-04T03:47:05.472Z,-11.10
2019-02-04T03:49:38.122Z,-11.00
2019-02-04T03:52:10.905Z,-11.00
2019-02-04T03:54:42.460Z,-11.00
2019-02-04T03:57:11.681Z,-11.30
2019-02-04T03:59:42.166Z,-11.40
2019-02-04T04:02:37.493Z,-11.30
2019-02-04T04:05:10.506Z,-11.30
2019-02-04T04:07:40.913Z,-11.30
2019-02-04T04:10:11.873Z,-11.20
2019-02-04T04:12:42.900Z,-11.10
2019-02-04T04:15:13.186Z,-11.30
2019-02-04T04:17:47.251Z,-11.30
2019-02-04T04:20:22.124Z,-11.30
2019-02-04T04:22:54.293Z,-11.40
2019-02-04T04:25:25.438Z,-11.40
2019-02-04T04:27:54.124Z,-11.30
2019-02-04T04:30:25.041Z,-11.40
2019-02-04T04:32:58.090Z,-11.50
2019-02-04T04:35:31.956Z,-11.50
2019-02-04T04:38:04.285Z,-11.50
2019-02-04T04:40:37.204Z,-11.40
2019-02-04T04:43:08.525Z,-11.50
2019-02-04T04:45:41.325Z,-11.60
2019-02-04T04:48:13.264Z,-11.40
2019-02-04T04:50:45.352Z,-11.50
2019-02-04T04:53:17.262Z,-11.50
2019-02-04T04:55:52.029Z,-11.60
2019-02-04T04:58:23.245Z,-11.50
2019-02-04T05:00:53.643Z,-11.50
2019-02-04T05:03:27.212Z,-11.40
2019-02-04T05:05:58.489Z,-11.50
2019-02-04T05:08:31.230Z,-11.70
2019-02-04T05:11:01.045Z,-11.50
2019-02-04T05:13:35.668Z,-11.60
2019-02-04T05:16:06.436Z,-11.70
2019-02-04T05:18:38.454Z,-11.80
2019-02-04T05:21:10.866Z,-11.90
2019-02-04T05:23:41.686Z,-11.90
2019-02-04T05:26:11.664Z,-11.90
2019-02-04T05:28:40.916Z,-11.80
2019-02-04T05:31:11.317Z,-11.70
2019-02-04T05:33:44.464Z,-11.70
2019-02-04T05:36:19.912Z,-11.80
2019-02-04T05:38:56.304Z,-11.80
2019-02-04T05:41:27.297Z,-11.70
2019-02-04T05:43:59.194Z,-11.70
2019-02-04T05:46:31.736Z,-11.70
2019-02-04T05:49:03.981Z,-12.00
2019-02-04T05:51:36.650Z,-11.80
2019-02-04T05:54:07.988Z,-11.90
2019-02-04T05:56:37.581Z,-11.90
2019-02-04T05:59:10.388Z,-11.90
2019-02-04T06:01:42.776Z,-12.00
2019-02-04T06:04:15.225Z,-11.80
2019-02-04T06:06:46.769Z,-12.00
2019-02-04T06:09:18.083Z,-11.90
2019-02-04T06:11:49.485Z,-11.90
2019-02-04T06:14:22.285Z,-11.90
2019-02-04T06:16:55.121Z,-12.00
2019-02-04T06:19:28.186Z,-12.00
2019-02-04T06:22:00.665Z,-11.90
2019-02-04T06:24:32.882Z,-11.90
2019-02-04T06:27:04.843Z,-12.00
2019-02-04T06:29:37.725Z,-12.00
2019-02-04T06:32:07.869Z,-12.10
2019-02-04T06:34:40.528Z,-12.20
2019-02-04T06:37:12.489Z,-12.40
2019-02-04T06:39:45.998Z,-12.30
2019-02-04T06:42:19.817Z,-12.10
2019-02-04T06:44:54.521Z,-12.30
2019-02-04T06:47:25.914Z,-12.40
2019-02-04T06:49:58.152Z,-12.20
2019-02-04T06:52:30.622Z,-12.30
2019-02-04T06:55:06.520Z,-12.10
2019-02-04T06:57:40.468Z,-12.00
2019-02-04T07:00:11.769Z,-12.10
2019-02-04T07:02:42.346Z,-12.00
2019-02-04T07:05:14.604Z,-12.00
2019-02-04T07:07:47.088Z,-11.90
2019-02-04T07:10:18.652Z,-11.90
2019-02-04T07:12:48.898Z,-11.90
2019-02-04T07:15:20.777Z,-11.80
2019-02-04T07:17:52.125Z,-11.70
2019-02-04T07:20:27.761Z,-11.70
2019-02-04T07:22:58.121Z,-11.70
2019-02-04T07:25:29.299Z,-11.70
2019-02-04T07:28:01.809Z,-11.80
2019-02-04T07:30:35.870Z,-11.80
2019-02-04T07:33:08.051Z,-11.90
2019-02-04T07:35:40.394Z,-11.90
2019-02-04T07:38:11.577Z,-12.00
2019-02-04T07:40:42.169Z,-11.90
2019-02-04T07:43:13.514Z,-11.90
2019-02-04T07:45:45.689Z,-11.70
2019-02-04T07:48:18.025Z,-11.70
2019-02-04T07:50:49.756Z,-11.70
2019-02-04T07:53:22.136Z,-11.70
2019-02-04T07:55:56.089Z,-11.70
2019-02-04T07:58:26.362Z,-11.70
2019-02-04T08:01:00.945Z,-11.70
2019-02-04T08:03:33.837Z,-11.70
2019-02-04T08:06:05.296Z,-11.50
2019-02-04T08:08:37.068Z,-11.60
2019-02-04T08:11:08.760Z,-11.70
2019-02-04T08:13:41.517Z,-11.70
2019-02-04T08:16:14.665Z,-11.60
2019-02-04T08:18:45.886Z,-11.50
2019-02-04T08:21:16.978Z,-11.60
2019-02-04T08:23:49.320Z,-11.60
2019-02-04T08:26:21.738Z,-11.60
2019-02-04T08:28:52.536Z,-11.50
2019-02-04T08:31:25.310Z,-11.60
2019-02-04T08:33:55.732Z,-11.50
2019-02-04T08:36:27.720Z,-11.50
2019-02-04T08:38:59.761Z,-11.30
2019-02-04T08:41:30.583Z,-11.40
2019-02-04T08:44:02.565Z,-11.20
2019-02-04T08:46:33.036Z,-11.10
2019-02-04T08:49:03.648Z,-11.20
2019-02-04T08:51:33.932Z,-11.20
2019-02-04T08:54:05.462Z,-11.10
2019-02-04T08:56:37.948Z,-11.10
2019-02-04T08:59:09.414Z,-11.10
2019-02-04T09:01:42.449Z,-10.90
2019-02-04T09:04:14.957Z,-10.80
2019-02-04T09:06:46.903Z,-10.80
2019-02-04T09:09:19.765Z,-11.00
2019-02-04T09:11:51.409Z,-10.80
2019-02-04T09:14:21.805Z,-10.80
2019-02-04T09:16:57.253Z,-10.80
2019-02-04T09:19:27.817Z,-10.80
2019-02-04T09:22:01.386Z,-10.70
2019-02-04T09:24:32.538Z,-10.60
2019-02-04T09:27:03.888Z,-10.60
2019-02-04T09:29:37.764Z,-10.70
2019-02-04T09:32:08.632Z,-10.60
2019-02-04T09:34:41.701Z,-10.60
2019-02-04T09:37:12.657Z,-10.50
2019-02-04T09:39:46.467Z,-10.60
2019-02-04T09:42:19.183Z,-10.40
2019-02-04T09:44:51.063Z,-10.30
2019-02-04T09:47:20.155Z,-10.10
2019-02-04T09:49:51.832Z,-10.00
2019-02-04T09:52:23.721Z,-10.00
2019-02-04T09:54:56.249Z,-9.90
2019-02-04T09:57:27.085Z,-10.00
2019-02-04T10:00:01.905Z,-10.00
2019-02-04T10:02:33.265Z,-9.90
2019-02-04T10:05:04.656Z,-9.80
2019-02-04T10:07:47.439Z,-9.70
2019-02-04T10:10:18.621Z,-9.70
2019-02-04T10:12:52.418Z,-9.60
2019-02-04T10:15:23.405Z,-9.50
2019-02-04T10:17:55.084Z,-9.30
2019-02-04T10:20:33.470Z,-9.40
2019-02-04T10:23:00.154Z,-9.30
2019-02-04T10:25:32.778Z,-9.30
2019-02-04T10:28:04.676Z,-9.20
2019-02-04T10:30:36.873Z,-9.00
2019-02-04T10:33:08.903Z,-8.90
2019-02-04T10:35:41.320Z,-8.90
2019-02-04T10:38:16.375Z,-8.90
2019-02-04T10:40:47.976Z,-8.90
2019-02-04T10:43:23.069Z,-8.80
2019-02-04T10:45:57.584Z,-8.70
2019-02-04T10:48:29.739Z,-8.80
2019-02-04T10:51:03.201Z,-8.70
2019-02-04T10:53:32.656Z,-8.60
2019-02-04T10:56:04.546Z,-8.50
2019-02-04T10:58:46.955Z,-8.40
2019-02-04T11:01:18.030Z,-8.30
2019-02-04T11:03:51.039Z,-8.30
2019-02-04T11:06:22.163Z,-8.30
2019-02-04T11:08:54.047Z,-8.20
2019-02-04T11:11:24.542Z,-8.10
2019-02-04T11:13:55.281Z,-8.20
2019-02-04T11:16:28.689Z,-8.20
2019-02-04T11:19:00.841Z,-8.20
2019-02-04T11:21:33.287Z,-8.20
2019-02-04T11:24:03.498Z,-8.20
2019-02-04T11:26:40.658Z,-8.10
2019-02-04T11:29:11.371Z,-7.90
2019-02-04T11:31:42.320Z,-7.80
2019-02-04T11:34:15.576Z,-7.90
2019-02-04T11:36:48.264Z,-7.80
2019-02-04T11:39:22.030Z,-7.90
2019-02-04T11:41:53.833Z,-7.90
2019-02-04T11:44:27.624Z,-7.90
2019-02-04T11:47:00.297Z,-7.90
2019-02-04T11:49:33.591Z,-7.80
2019-02-04T11:52:02.708Z,-7.70
2019-02-04T11:54:36.016Z,-7.70
2019-02-04T11:57:11.401Z,-7.60
2019-02-04T11:59:42.968Z,-7.60
2019-02-04T12:02:15.104Z,-7.50
2019-02-04T12:04:45.032Z,-7.60
2019-02-04T12:07:16.817Z,-7.80
2019-02-04T12:09:48.761Z,-7.80
2019-02-04T12:12:23.669Z,-7.70
2019-02-04T12:14:58.296Z,-7.90
2019-02-04T12:17:31.702Z,-7.60
2019-02-04T12:20:03.795Z,-7.50
2019-02-04T12:22:35.572Z,-7.60
2019-02-04T12:25:06.391Z,-7.50
2019-02-04T12:27:38.410Z,-7.70
2019-02-04T12:30:11.082Z,-7.80
2019-02-04T12:32:43.945Z,-7.60
2019-02-04T12:35:16.297Z,-7.70
2019-02-04T12:37:46.092Z,-7.90
2019-02-04T12:40:16.819Z,-8.00
2019-02-04T12:42:46.568Z,-8.00
2019-02-04T12:45:20.301Z,-7.90
2019-02-04T12:47:54.725Z,-7.80
2019-02-04T12:50:27.988Z,-7.90
2019-02-04T12:53:01.291Z,-8.00
2019-02-04T12:55:33.529Z,-8.10
2019-02-04T12:58:06.008Z,-8.20
2019-02-04T13:00:39.117Z,-8.10
2019-02-04T13:03:11.500Z,-8.20
2019-02-04T13:05:44.621Z,-8.10
2019-02-04T13:08:16.117Z,-8.30
2019-02-04T13:10:48.619Z,-8.40
2019-02-04T13:13:21.872Z,-8.60
2019-02-04T13:15:55.414Z,-8.80
2019-02-04T13:18:28.220Z,-8.70
2019-02-04T13:20:59.257Z,-8.80
2019-02-04T13:23:30.473Z,-8.90
2019-02-04T13:26:02.985Z,-9.00
2019-02-04T13:28:37.653Z,-8.90
2019-02-04T13:31:10.152Z,-8.90
2019-02-04T13:33:41.093Z,-8.80
2019-02-04T13:36:11.403Z,-8.90
2019-02-04T13:38:43.661Z,-8.80
2019-02-04T13:41:17.035Z,-8.90
2019-02-04T13:43:49.097Z,-8.80
2019-02-04T13:46:18.758Z,-8.70
2019-02-04T13:48:51.290Z,-8.60
2019-02-04T13:51:24.149Z,-8.70
2019-02-04T13:53:57.220Z,-8.60
2019-02-04T13:56:30.977Z,-8.60
2019-02-04T13:59:02.554Z,-8.60
2019-02-04T14:01:35.353Z,-8.60
2019-02-04T14:04:07.099Z,-8.60
2019-02-04T14:06:37.136Z,-8.60
2019-02-04T14:09:10.234Z,-8.50
2019-02-04T14:11:41.077Z,-8.50
2019-02-04T14:14:12.126Z,-8.40
2019-02-04T14:16:42.485Z,-8.50
2019-02-04T14:19:15.376Z,-8.40
2019-02-04T14:21:48.565Z,-8.40
2019-02-04T14:24:20.842Z,-8.40
2019-02-04T14:26:52.181Z,-8.30
2019-02-04T14:29:23.732Z,-8.30
2019-02-04T14:31:55.724Z,-8.30
2019-02-04T14:34:26.157Z,-8.30
2019-02-04T14:36:57.615Z,-8.30
2019-02-04T14:39:27.994Z,-8.30
2019-02-04T14:41:59.991Z,-8.20
2019-02-04T14:44:49.356Z,-8.20
2019-02-04T14:47:28.921Z,-8.20
2019-02-04T14:50:15.168Z,-8.10
2019-02-04T14:53:11.285Z,-8.20
2019-02-04T14:55:48.469Z,-8.10
2019-02-04T14:58:27.718Z,-8.10
2019-02-04T15:01:33.417Z,-8.10
2019-02-04T15:04:17.943Z,-8.10
2019-02-04T15:07:00.304Z,-8.00
2019-02-04T15:09:46.142Z,-8.00
2019-02-04T15:12:21.015Z,-7.90
2019-02-04T15:15:21.011Z,-7.90
2019-02-04T15:18:11.542Z,-7.90
2019-02-04T15:20:50.668Z,-7.80
2019-02-04T15:23:42.133Z,-7.80
2019-02-04T15:26:44.577Z,-7.80
2019-02-04T15:29:21.547Z,-7.70
2019-02-04T15:32:13.912Z,-7.70
2019-02-04T15:35:04.542Z,-7.60
2019-02-04T15:37:56.138Z,-7.50
2019-02-04T15:40:45.766Z,-7.60
2019-02-04T15:43:41.037Z,-7.50
2019-02-04T15:46:27.043Z,-7.40
2019-02-04T15:49:27.764Z,-7.30
2019-02-04T15:51:59.560Z,-7.30
2019-02-04T15:54:29.678Z,-7.20
2019-02-04T15:57:00.079Z,-7.20
2019-02-04T15:59:32.789Z,-7.20
2019-02-04T16:02:04.373Z,-7.00
2019-02-04T16:04:37.321Z,-7.00
2019-02-04T16:07:10.798Z,-7.00
2019-02-04T16:09:44.401Z,-6.90
2019-02-04T16:12:15.346Z,-6.90
2019-02-04T16:14:48.795Z,-6.90
2019-02-04T16:17:18.689Z,-6.90
2019-02-04T16:19:49.197Z,-6.90
2019-02-04T16:22:23.259Z,-6.90
2019-02-04T16:24:55.639Z,-6.80
2019-02-04T16:27:26.508Z,-6.80
2019-02-04T16:29:56.744Z,-6.80
2019-02-04T16:32:28.307Z,-6.80
2019-02-04T16:35:00.013Z,-6.80
2019-02-04T16:37:32.568Z,-6.80
2019-02-04T16:40:10.077Z,-6.70
2019-02-04T16:42:41.453Z,-6.70
2019-02-04T16:45:14.421Z,-6.80
2019-02-04T16:47:48.874Z,-6.70
2019-02-04T16:50:26.497Z,-6.60
2019-02-04T16:53:10.185Z,-6.60
2019-02-04T16:55:32.619Z,-6.60
2019-02-04T16:58:03.371Z,-6.50
2019-02-04T17:00:35.242Z,-6.50
2019-02-04T17:03:07.731Z,-6.50
2019-02-04T17:05:38.523Z,-6.40
2019-02-04T17:08:09.640Z,-6.40
2019-02-04T17:10:40.756Z,-6.40
2019-02-04T17:13:12.521Z,-6.40
2019-02-04T17:15:44.909Z,-6.30
2019-02-04T17:18:16.437Z,-6.30
2019-02-04T17:20:46.097Z,-6.30
2019-02-04T17:23:22.413Z,-6.20
2019-02-04T17:25:51.077Z,-6.20
2019-02-04T17:28:22.615Z,-6.20
2019-02-04T17:30:53.097Z,-6.20
2019-02-04T17:33:24.156Z,-6.10
2019-02-04T17:35:55.376Z,-6.10
2019-02-04T17:38:27.739Z,-6.00
2019-02-04T17:40:58.797Z,-6.00
2019-02-04T17:43:30.865Z,-6.00
2019-02-04T17:46:02.567Z,-5.90
2019-02-04T17:48:34.003Z,-5.90
2019-02-04T17:51:05.540Z,-6.00
2019-02-04T17:53:35.988Z,-6.00
2019-02-04T17:56:09.454Z,-5.90
2019-02-04T17:58:41.245Z,-6.00
2019-02-04T18:01:13.321Z,-5.90
2019-02-04T18:03:44.972Z,-5.90
2019-02-04T18:06:16.506Z,-5.90
2019-02-04T18:08:45.896Z,-5.90
2019-02-04T18:11:18.498Z,-5.80
2019-02-04T18:13:49.707Z,-5.80
2019-02-04T18:16:21.113Z,-5.90
2019-02-04T18:18:51.800Z,-5.90
2019-02-04T18:21:24.221Z,-5.80
2019-02-04T18:23:57.356Z,-5.80
2019-02-04T18:26:31.456Z,-5.80
2019-02-04T18:29:03.392Z,-5.80
2019-02-04T18:31:34.485Z,-5.70
2019-02-04T18:34:06.345Z,-5.80
2019-02-04T18:36:37.841Z,-5.70
2019-02-04T18:39:11.627Z,-5.70
2019-02-04T18:41:43.497Z,-5.70
2019-02-04T18:44:15.181Z,-5.60
2019-02-04T18:46:49.612Z,-5.60
2019-02-04T18:49:26.379Z,-5.60
2019-02-04T18:51:57.969Z,-5.50
2019-02-04T18:54:30.123Z,-5.50
2019-02-04T18:57:02.197Z,-5.60
2019-02-04T18:59:34.613Z,-5.50
2019-02-04T19:02:05.658Z,-5.40
2019-02-04T19:04:34.325Z,-5.30
2019-02-04T19:07:07.086Z,-5.40
2019-02-04T19:09:37.965Z,-5.30
2019-02-04T19:12:11.465Z,-5.30
2019-02-04T19:14:45.343Z,-5.30
2019-02-04T19:17:16.349Z,-5.20
2019-02-04T19:19:50.549Z,-5.10
2019-02-04T19:22:21.609Z,-5.10
2019-02-04T19:24:54.491Z,-5.10
2019-02-04T19:27:27.064Z,-5.00
2019-02-04T19:29:58.306Z,-5.00
2019-02-04T19:32:29.309Z,-4.90
2019-02-04T19:35:03.241Z,-5.00
2019-02-04T19:37:34.549Z,-4.90
2019-02-04T19:40:04.416Z,-4.80
2019-02-04T19:42:36.416Z,-4.70
2019-02-04T19:45:08.249Z,-4.70
2019-02-04T19:47:39.870Z,-4.70
2019-02-04T19:50:13.223Z,-4.60
2019-02-04T19:52:45.021Z,-4.70
2019-02-04T19:55:18.669Z,-4.60
2019-02-04T19:57:51.246Z,-4.60
2019-02-04T20:00:22.808Z,-4.60
2019-02-04T20:02:54.736Z,-4.60
2019-02-04T20:05:25.795Z,-4.60
2019-02-04T20:07:56.984Z,-4.60
2019-02-04T20:10:30.837Z,-4.40
2019-02-04T20:13:03.477Z,-4.40
2019-02-04T20:15:36.043Z,-4.30
2019-02-04T20:18:06.209Z,-4.30
2019-02-04T20:20:42.577Z,-4.40
2019-02-04T20:23:14.493Z,-4.30
2019-02-04T20:25:46.200Z,-4.20
2019-02-04T20:28:18.462Z,-4.30
2019-02-04T20:30:50.650Z,-4.30
2019-02-04T20:33:26.958Z,-4.20
2019-02-04T20:35:58.430Z,-4.20
2019-02-04T20:38:30.153Z,-4.30
2019-02-04T20:41:02.377Z,-4.20
2019-02-04T20:43:32.543Z,-4.30
2019-02-04T20:46:01.906Z,-4.20
2019-02-04T20:48:32.326Z,-4.10
2019-02-04T20:51:02.826Z,-4.10
2019-02-04T20:53:34.422Z,-4.10
2019-02-04T20:56:04.313Z,-4.10
2019-02-04T20:58:39.479Z,-4.10
2019-02-04T21:01:15.241Z,-4.00
2019-02-04T21:03:46.197Z,-4.10
2019-02-04T21:06:18.715Z,-4.10
2019-02-04T21:08:51.054Z,-4.10
2019-02-04T21:11:24.650Z,-4.10
2019-02-04T21:13:55.490Z,-4.00
2019-02-04T21:16:28.404Z,-4.00
2019-02-04T21:18:57.112Z,-4.00
2019-02-04T21:21:26.984Z,-3.90
2019-02-04T21:23:59.774Z,-4.00
2019-02-04T21:26:30.655Z,-4.00
2019-02-04T21:29:01.945Z,-3.90
2019-02-04T21:31:36.401Z,-3.90
2019-02-04T21:34:07.913Z,-3.90
2019-02-04T21:36:41.392Z,-3.90
2019-02-04T21:39:16.910Z,-3.80
2019-02-04T21:41:47.849Z,-3.80
2019-02-04T21:44:24.526Z,-3.70
2019-02-04T21:47:00.974Z,-3.70
2019-02-04T21:49:31.894Z,-3.60
2019-02-04T21:52:02.859Z,-3.50
2019-02-04T21:54:38.316Z,-3.50
2019-02-04T21:57:10.829Z,-3.40
2019-02-04T21:59:43.539Z,-3.40
2019-02-04T22:02:16.450Z,-3.30
2019-02-04T22:04:47.594Z,-3.30
2019-02-04T22:07:17.358Z,-3.20
2019-02-04T22:09:49.279Z,-3.10
2019-02-04T22:12:22.497Z,-3.20
2019-02-04T22:14:55.269Z,-3.10
2019-02-04T22:17:27.116Z,-3.10
2019-02-04T22:19:57.510Z,-3.00
2019-02-04T22:22:29.902Z,-2.90
2019-02-04T22:25:00.761Z,-2.90
2019-02-04T22:27:33.849Z,-2.90
2019-02-04T22:30:04.789Z,-2.80
2019-02-04T22:32:38.321Z,-2.70
2019-02-04T22:35:09.353Z,-2.60
2019-02-04T22:37:43.437Z,-2.60
2019-02-04T22:40:15.853Z,-2.50
2019-02-04T22:42:46.888Z,-2.50
2019-02-04T22:45:19.753Z,-2.50
2019-02-04T22:47:51.338Z,-2.30
2019-02-04T22:50:25.620Z,-2.30
2019-02-04T22:52:56.989Z,-2.30
2019-02-04T22:55:32.108Z,-2.20
2019-02-04T22:58:03.416Z,-2.20
2019-02-04T23:00:45.709Z,-2.20
2019-02-04T23:03:18.733Z,-2.10
2019-02-04T23:05:49.742Z,-2.10
2019-02-04T23:08:22.618Z,-2.10
2019-02-04T23:10:54.293Z,-2.00
2019-02-04T23:13:26.065Z,-2.00
2019-02-04T23:15:58.221Z,-2.00
2019-02-04T23:18:28.584Z,-1.80
2019-02-04T23:20:58.836Z,-1.80
2019-02-04T23:23:30.349Z,-1.80
2019-02-04T23:26:02.621Z,-1.70
2019-02-04T23:28:33.851Z,-1.70
2019-02-04T23:31:06.996Z,-1.70
2019-02-04T23:33:39.720Z,-1.70
2019-02-04T23:36:12.137Z,-1.60
2019-02-04T23:38:44.144Z,-1.70
2019-02-04T23:41:16.656Z,-1.50
2019-02-04T23:43:49.002Z,-1.60
2019-02-04T23:46:20.573Z,-1.60
2019-02-04T23:48:54.645Z,-1.60
2019-02-04T23:51:28.456Z,-1.50
2019-02-04T23:54:02.649Z,-1.60
2019-02-04T23:56:33.614Z,-1.50
2019-02-04T23:59:04.097Z,-1.50
